createdAt,value
2024-03-08T00:01:21.969Z,21.92
2024-03-08T00:04:24.599Z,18.75
2024-03-08T00:07:27.441Z,20.35
2024-03-08T00:10:30.280Z,20.42
2024-03-08T00:13:32.009Z,15.90
2024-03-08T00:16:34.371Z,16.00
2024-03-08T00:19:35.989Z,18.63
2024-03-08T00:22:38.987Z,19.27
2024-03-08T00:25:40.636Z,22.17
2024-03-08T00:28:43.468Z,20.52
2024-03-08T00:31:45.126Z,23.30
2024-03-08T00:34:47.930Z,19.90
2024-03-08T00:37:49.780Z,17.92
2024-03-08T00:40:51.489Z,20.38
2024-03-08T00:43:53.182Z,19.85
2024-03-08T00:46:55.931Z,19.75
2024-03-08T00:49:57.700Z,19.60
2024-03-08T00:53:00.370Z,22.25
2024-03-08T00:56:02.066Z,23.05
2024-03-08T00:59:04.866Z,18.20
2024-03-08T01:02:06.602Z,20.33
2024-03-08T01:05:09.532Z,15.90
2024-03-08T01:08:11.195Z,15.43
2024-03-08T01:11:17.063Z,18.90
2024-03-08T01:14:18.730Z,16.23
2024-03-08T01:17:20.468Z,21.55
2024-03-08T01:20:22.168Z,20.42
2024-03-08T01:23:24.823Z,20.17
2024-03-08T01:26:26.526Z,18.08
2024-03-08T01:29:28.219Z,17.05
2024-03-08T01:32:30.463Z,18.50
2024-03-08T01:35:32.188Z,15.23
2024-03-08T01:38:34.735Z,16.17
2024-03-08T01:41:36.573Z,18.38
2024-03-08T01:44:39.242Z,15.18
2024-03-08T01:47:42.006Z,16.90
2024-03-08T01:50:43.841Z,14.77
2024-03-08T01:53:48.630Z,11.50
2024-03-08T01:56:50.834Z,16.00
2024-03-08T01:59:52.663Z,18.08
2024-03-08T02:02:55.866Z,14.82
2024-03-08T02:05:57.728Z,17.05
2024-03-08T02:09:01.194Z,17.23
2024-03-08T02:12:03.115Z,21.08
2024-03-08T02:15:09.431Z,13.88
2024-03-08T02:18:11.728Z,17.65
2024-03-08T02:21:14.778Z,15.32
2024-03-08T02:24:17.627Z,15.80
2024-03-08T02:27:28.229Z,16.02
2024-03-08T02:30:29.918Z,13.50
2024-03-08T02:33:32.491Z,16.75
2024-03-08T02:36:34.187Z,17.52
2024-03-08T02:39:35.852Z,16.48
2024-03-08T02:42:38.108Z,15.05
2024-03-08T02:45:39.840Z,18.10
2024-03-08T02:48:42.572Z,20.50
2024-03-08T02:51:44.841Z,19.23
2024-03-08T02:54:46.476Z,16.02
2024-03-08T02:57:49.262Z,17.33
2024-03-08T03:00:51.083Z,15.38
2024-03-08T03:03:53.219Z,15.60
2024-03-08T03:06:55.447Z,17.88
2024-03-08T03:09:57.184Z,14.93
2024-03-08T03:12:59.369Z,15.98
2024-03-08T03:16:01.506Z,16.85
2024-03-08T03:19:03.144Z,17.30
2024-03-08T03:22:05.407Z,18.20
2024-03-08T03:25:08.072Z,21.15
2024-03-08T03:28:10.809Z,22.83
2024-03-08T03:31:12.995Z,17.88
2024-03-08T03:34:14.722Z,19.40
2024-03-08T03:37:16.870Z,14.55
2024-03-08T03:40:18.895Z,13.63
2024-03-08T03:43:21.567Z,13.48
2024-03-08T03:46:23.666Z,18.27
2024-03-08T03:49:25.370Z,15.90
2024-03-08T03:52:27.585Z,16.25
2024-03-08T03:55:29.542Z,16.20
2024-03-08T03:58:32.224Z,16.45
2024-03-08T04:01:38.026Z,18.70
2024-03-08T04:04:40.769Z,17.05
2024-03-08T04:07:42.430Z,16.60
2024-03-08T04:10:44.522Z,14.82
2024-03-08T04:13:46.213Z,19.35
2024-03-08T04:16:48.220Z,16.50
2024-03-08T04:19:49.861Z,16.67
2024-03-08T04:22:52.384Z,16.33
2024-03-08T04:25:54.762Z,14.90
2024-03-08T04:28:56.474Z,20.17
2024-03-08T04:31:58.755Z,18.52
2024-03-08T04:35:00.659Z,18.63
2024-03-08T04:38:02.325Z,17.40
2024-03-08T04:41:04.902Z,17.70
2024-03-08T04:44:06.902Z,17.00
2024-03-08T04:47:09.632Z,20.45
2024-03-08T04:50:11.272Z,16.58
2024-03-08T04:53:13.430Z,13.80
2024-03-08T04:56:15.683Z,24.88
2024-03-08T04:59:17.365Z,32.42
2024-03-08T05:02:19.665Z,16.75
2024-03-08T05:05:21.285Z,14.70
2024-03-08T05:08:23.545Z,15.05
2024-03-08T05:11:25.230Z,15.80
2024-03-08T05:14:26.964Z,13.65
2024-03-08T05:17:29.269Z,16.83
2024-03-08T05:20:31.528Z,14.68
2024-03-08T05:23:33.203Z,15.50
2024-03-08T05:26:35.480Z,16.30
2024-03-08T05:29:37.238Z,13.23
2024-03-08T05:32:40.201Z,9.30
2024-03-08T05:35:42.472Z,20.02
2024-03-08T05:38:44.848Z,15.27
2024-03-08T05:41:47.406Z,17.92
2024-03-08T05:44:49.149Z,16.13
2024-03-08T05:47:50.857Z,16.90
2024-03-08T05:50:53.486Z,18.50
2024-03-08T05:53:55.344Z,19.55
2024-03-08T05:56:57.999Z,15.80
2024-03-08T06:00:00.430Z,18.45
2024-03-08T06:03:02.261Z,17.10
2024-03-08T06:06:04.878Z,13.98
2024-03-08T06:09:06.644Z,18.60
2024-03-08T06:12:08.456Z,18.65
2024-03-08T06:15:11.098Z,18.55
2024-03-08T06:18:13.014Z,22.55
2024-03-08T06:21:15.726Z,26.52
2024-03-08T06:24:17.841Z,20.27
2024-03-08T06:27:19.643Z,22.20
2024-03-08T06:30:22.250Z,18.65
2024-03-08T06:33:23.981Z,20.95
2024-03-08T06:36:26.535Z,17.48
2024-03-08T06:39:28.909Z,17.77
2024-03-08T06:42:30.868Z,20.52
2024-03-08T06:45:33.466Z,16.80
2024-03-08T06:48:35.695Z,20.88
2024-03-08T06:51:37.375Z,19.10
2024-03-08T06:54:40.192Z,18.33
2024-03-08T06:57:42.780Z,19.25
2024-03-08T07:00:44.470Z,19.50
2024-03-08T07:03:47.184Z,19.20
2024-03-08T07:06:49.126Z,19.65
2024-03-08T07:09:51.345Z,22.73
2024-03-08T07:12:54.251Z,18.52
2024-03-08T07:15:55.988Z,18.02
2024-03-08T07:18:58.847Z,16.67
2024-03-08T07:22:00.522Z,15.57
2024-03-08T07:25:02.764Z,13.77
2024-03-08T07:28:05.220Z,20.17
2024-03-08T07:31:07.060Z,17.98
2024-03-08T07:34:09.592Z,17.27
2024-03-08T07:37:11.852Z,17.48
2024-03-08T07:40:13.709Z,19.08
2024-03-08T07:43:16.310Z,19.05
2024-03-08T07:46:18.012Z,19.55
2024-03-08T07:49:20.054Z,16.73
2024-03-08T07:52:22.279Z,15.48
2024-03-08T07:55:23.896Z,18.10
2024-03-08T07:58:26.047Z,19.73
2024-03-08T08:01:28.004Z,18.30
2024-03-08T08:04:29.765Z,17.00
2024-03-08T08:07:31.737Z,18.45
2024-03-08T08:10:34.088Z,20.42
2024-03-08T08:13:37.026Z,20.88
2024-03-08T08:16:38.764Z,23.30
2024-03-08T08:19:44.770Z,26.20
2024-03-08T08:22:47.269Z,18.10
2024-03-08T08:25:49.100Z,17.15
2024-03-08T08:28:50.825Z,17.67
2024-03-08T08:31:52.610Z,19.90
2024-03-08T08:34:54.348Z,19.33
2024-03-08T08:37:56.627Z,21.45
2024-03-08T08:40:58.460Z,19.25
2024-03-08T08:44:09.033Z,19.52
2024-03-08T08:47:18.742Z,19.05
2024-03-08T08:50:20.515Z,20.33
2024-03-08T08:53:23.061Z,17.27
2024-03-08T08:56:25.081Z,18.13
2024-03-08T08:59:26.690Z,19.83
2024-03-08T09:02:29.263Z,17.98
2024-03-08T09:05:30.986Z,18.42
2024-03-08T09:08:33.931Z,16.00
2024-03-08T09:11:36.487Z,17.75
2024-03-08T09:14:38.164Z,15.00
2024-03-08T09:17:41.394Z,15.85
2024-03-08T09:20:44.868Z,18.13
2024-03-08T09:23:46.731Z,17.67
2024-03-08T09:26:48.506Z,17.88
2024-03-08T09:29:50.561Z,17.48
2024-03-08T09:32:52.608Z,14.68
2024-03-08T09:35:54.487Z,17.13
2024-03-08T09:38:56.154Z,13.85
2024-03-08T09:41:58.539Z,16.70
2024-03-08T09:45:00.718Z,17.67
2024-03-08T09:48:03.392Z,15.20
2024-03-08T09:51:06.404Z,20.50
2024-03-08T09:54:14.647Z,18.10
2024-03-08T09:57:22.039Z,20.75
2024-03-08T10:00:24.091Z,14.25
2024-03-08T10:03:25.778Z,12.90
2024-03-08T10:06:28.112Z,15.65
2024-03-08T10:09:29.723Z,13.02
2024-03-08T10:12:32.247Z,10.20
2024-03-08T10:15:33.898Z,13.30
2024-03-08T10:18:36.325Z,13.32
2024-03-08T10:21:51.426Z,9.40
2024-03-08T10:24:53.811Z,9.95
2024-03-08T10:27:56.793Z,8.93
2024-03-08T10:30:59.275Z,10.38
2024-03-08T10:34:02.255Z,9.18
2024-03-08T10:37:05.920Z,11.40
2024-03-08T10:40:13.893Z,14.07
2024-03-08T10:43:25.666Z,11.35
2024-03-08T10:47:00.354Z,11.27
2024-03-08T10:50:12.554Z,9.15
2024-03-08T10:53:15.551Z,8.35
2024-03-08T10:56:18.068Z,7.40
2024-03-08T10:59:20.599Z,8.93
2024-03-08T11:02:23.177Z,11.05
2024-03-08T11:05:45.415Z,10.30
2024-03-08T11:08:50.071Z,7.57
2024-03-08T11:11:51.749Z,9.35
2024-03-08T11:14:55.597Z,7.80
2024-03-08T11:21:05.786Z,8.32
2024-03-08T11:24:15.342Z,7.82
2024-03-08T11:27:17.658Z,7.45
2024-03-08T11:30:23.338Z,7.22
2024-03-08T11:33:28.199Z,7.32
2024-03-08T11:36:29.845Z,8.68
2024-03-08T11:39:32.109Z,9.27
2024-03-08T11:42:36.704Z,6.72
2024-03-08T11:45:38.848Z,12.27
2024-03-08T11:48:45.359Z,7.97
2024-03-08T11:51:48.056Z,8.77
2024-03-08T11:54:53.764Z,9.73
2024-03-08T11:58:06.857Z,7.85
2024-03-08T12:01:10.588Z,9.07
2024-03-08T12:04:14.286Z,8.27
2024-03-08T12:07:15.951Z,8.25
2024-03-08T12:10:22.445Z,8.23
2024-03-08T12:13:24.150Z,6.90
2024-03-08T12:16:26.386Z,11.07
2024-03-08T12:19:29.401Z,8.40
2024-03-08T12:22:32.014Z,8.40
2024-03-08T12:25:34.654Z,9.82
2024-03-08T12:28:37.105Z,8.23
2024-03-08T12:31:38.824Z,7.47
2024-03-08T12:34:41.648Z,7.88
2024-03-08T12:37:43.497Z,8.27
2024-03-08T12:40:45.571Z,12.88
2024-03-08T12:43:47.878Z,10.10
2024-03-08T12:46:53.346Z,8.02
2024-03-08T12:49:55.569Z,7.43
2024-03-08T12:52:58.090Z,8.02
2024-03-08T12:55:59.863Z,7.03
2024-03-08T12:59:02.835Z,8.52
2024-03-08T13:02:04.528Z,7.93
2024-03-08T13:05:07.397Z,7.25
2024-03-08T13:08:09.906Z,7.55
2024-03-08T13:11:12.888Z,7.35
2024-03-08T13:14:14.668Z,6.60
2024-03-08T13:17:17.013Z,6.93
2024-03-08T13:20:24.942Z,6.65
2024-03-08T13:23:32.933Z,6.28
2024-03-08T13:26:34.782Z,5.90
2024-03-08T13:29:37.083Z,7.05
2024-03-08T13:32:38.775Z,6.53
2024-03-08T13:35:41.078Z,8.05
2024-03-08T13:38:47.919Z,7.35
2024-03-08T13:41:50.058Z,6.68
2024-03-08T13:44:51.684Z,7.05
2024-03-08T13:47:57.645Z,7.50
2024-03-08T13:50:59.470Z,8.05
2024-03-08T13:54:01.926Z,6.93
2024-03-08T13:57:03.829Z,6.30
2024-03-08T14:00:06.882Z,6.32
2024-03-08T14:03:14.907Z,6.30
2024-03-08T14:09:25.684Z,7.63
2024-03-08T14:12:30.490Z,6.30
2024-03-08T14:15:32.702Z,8.00
2024-03-08T14:18:35.366Z,8.15
2024-03-08T14:21:37.025Z,6.38
2024-03-08T14:24:39.392Z,6.93
2024-03-08T14:27:41.026Z,7.88
2024-03-08T14:30:43.325Z,5.88
2024-03-08T14:33:45.967Z,6.50
2024-03-08T14:36:48.186Z,6.05
2024-03-08T14:39:49.856Z,5.43
2024-03-08T14:42:52.280Z,5.70
2024-03-08T14:45:53.917Z,7.00
2024-03-08T14:48:56.619Z,6.97
2024-03-08T14:51:58.223Z,4.43
2024-03-08T14:55:01.062Z,5.40
2024-03-08T14:58:02.725Z,4.75
2024-03-08T15:01:06.158Z,4.68
2024-03-08T15:04:07.796Z,4.97
2024-03-08T15:07:10.121Z,6.25
2024-03-08T15:10:11.761Z,5.95
2024-03-08T15:13:14.383Z,6.13
2024-03-08T15:16:16.399Z,13.98
2024-03-08T15:19:18.810Z,5.45
2024-03-08T15:22:20.671Z,6.28
2024-03-08T15:25:23.421Z,6.28
2024-03-08T15:28:25.090Z,5.43
2024-03-08T15:31:27.357Z,5.07
2024-03-08T15:34:29.028Z,7.95
2024-03-08T15:37:31.424Z,5.55
2024-03-08T15:40:33.140Z,5.63
2024-03-08T15:43:35.593Z,5.55
2024-03-08T15:46:37.250Z,5.32
2024-03-08T15:49:39.644Z,8.38
2024-03-08T15:52:45.097Z,9.20
2024-03-08T15:55:47.255Z,5.43
2024-03-08T15:58:49.192Z,9.10
2024-03-08T16:01:52.115Z,9.48
2024-03-08T16:04:54.364Z,8.55
2024-03-08T16:07:57.182Z,11.45
2024-03-08T16:10:58.924Z,8.77
2024-03-08T16:14:01.593Z,7.75
2024-03-08T16:17:03.417Z,21.10
2024-03-08T16:20:05.673Z,8.85
2024-03-08T16:23:07.761Z,8.50
2024-03-08T16:26:10.154Z,10.40
2024-03-08T16:29:12.025Z,12.98
2024-03-08T16:32:14.769Z,8.57
2024-03-08T16:35:16.408Z,10.88
2024-03-08T16:38:18.796Z,18.42
2024-03-08T16:41:20.546Z,8.65
2024-03-08T16:44:22.953Z,8.38
2024-03-08T16:47:24.735Z,7.50
2024-03-08T16:50:27.106Z,8.20
2024-03-08T16:53:28.857Z,9.85
2024-03-08T16:56:30.595Z,8.23
2024-03-08T16:59:32.263Z,7.60
2024-03-08T17:02:34.600Z,9.15
2024-03-08T17:05:36.239Z,9.98
2024-03-08T17:08:38.143Z,8.68
2024-03-08T17:11:42.667Z,8.20
2024-03-08T17:14:45.199Z,8.88
2024-03-08T17:17:46.870Z,8.90
2024-03-08T17:20:49.281Z,9.43
2024-03-08T17:23:51.165Z,18.23
2024-03-08T17:26:54.196Z,9.25
2024-03-08T17:29:55.829Z,10.65
2024-03-08T17:33:02.583Z,24.63
2024-03-08T17:36:05.237Z,16.77
2024-03-08T17:39:06.914Z,8.73
2024-03-08T17:42:09.584Z,12.32
2024-03-08T17:45:11.710Z,12.38
2024-03-08T17:48:14.459Z,12.50
2024-03-08T17:51:17.000Z,14.90
2024-03-08T17:54:18.663Z,13.52
2024-03-08T17:57:20.874Z,15.43
2024-03-08T18:00:23.960Z,15.07
2024-03-08T18:03:25.655Z,13.80
2024-03-08T18:06:27.574Z,14.18
2024-03-08T18:09:29.232Z,17.63
2024-03-08T18:12:30.930Z,23.67
2024-03-08T18:15:33.080Z,12.20
2024-03-08T18:18:34.763Z,10.60
2024-03-08T18:21:40.193Z,9.98
2024-03-08T18:24:41.821Z,9.80
2024-03-08T18:27:44.204Z,13.93
2024-03-08T18:30:46.527Z,13.50
2024-03-08T18:33:48.289Z,16.70
2024-03-08T18:36:50.623Z,15.00
2024-03-08T18:39:52.251Z,12.30
2024-03-08T18:42:55.794Z,12.55
2024-03-08T18:45:57.767Z,9.75
2024-03-08T18:48:59.567Z,11.35
2024-03-08T18:52:02.144Z,13.05
2024-03-08T18:55:05.253Z,13.80
2024-03-08T18:58:07.243Z,13.80
2024-03-08T19:01:09.688Z,14.07
2024-03-08T19:04:11.346Z,21.00
2024-03-08T19:07:13.035Z,13.23
2024-03-08T19:10:15.535Z,14.23
2024-03-08T19:13:17.482Z,13.95
2024-03-08T19:16:20.283Z,11.23
2024-03-08T19:19:22.292Z,11.93
2024-03-08T19:22:23.972Z,11.95
2024-03-08T19:25:30.752Z,10.73
2024-03-08T19:28:32.484Z,11.63
2024-03-08T19:31:34.858Z,13.15
2024-03-08T19:34:37.282Z,13.23
2024-03-08T19:37:42.888Z,10.75
2024-03-08T19:40:44.685Z,12.10
2024-03-08T19:43:46.434Z,15.30
2024-03-08T19:46:49.424Z,16.40
2024-03-08T19:49:51.102Z,65.85
2024-03-08T19:52:54.286Z,17.20
2024-03-08T19:55:56.076Z,14.32
2024-03-08T19:58:57.880Z,11.30
2024-03-08T20:01:59.788Z,11.13
2024-03-08T20:05:01.566Z,14.20
2024-03-08T20:08:04.367Z,11.25
2024-03-08T20:11:06.699Z,14.20
2024-03-08T20:14:08.408Z,10.32
2024-03-08T20:17:11.089Z,12.60
2024-03-08T20:20:14.813Z,12.45
2024-03-08T20:23:17.144Z,10.30
2024-03-08T20:26:19.169Z,10.63
2024-03-08T20:29:20.899Z,9.95
2024-03-08T20:32:22.938Z,11.85
2024-03-08T20:35:27.378Z,12.50
2024-03-08T20:38:29.021Z,9.18
2024-03-08T20:41:30.719Z,8.07
2024-03-08T20:44:32.866Z,12.55
2024-03-08T20:47:35.790Z,13.68
2024-03-08T20:50:38.103Z,12.82
2024-03-08T20:53:39.931Z,10.13
2024-03-08T20:56:42.991Z,14.13
2024-03-08T20:59:45.252Z,13.35
2024-03-08T21:02:47.496Z,11.50
2024-03-08T21:05:50.640Z,11.80
2024-03-08T21:08:52.850Z,11.90
2024-03-08T21:11:54.495Z,14.07
2024-03-08T21:14:56.732Z,10.45
2024-03-08T21:17:58.718Z,11.10
2024-03-08T21:21:03.138Z,9.77
2024-03-08T21:24:05.667Z,10.85
2024-03-08T21:27:07.675Z,12.13
2024-03-08T21:30:10.836Z,12.93
2024-03-08T21:33:13.103Z,14.93
2024-03-08T21:36:14.826Z,15.40
2024-03-08T21:39:16.505Z,16.15
2024-03-08T21:42:18.131Z,8.07
2024-03-08T21:45:20.363Z,11.85
2024-03-08T21:48:22.668Z,10.48
2024-03-08T21:51:24.339Z,12.60
2024-03-08T21:54:26.004Z,11.00
2024-03-08T21:57:27.642Z,8.43
2024-03-08T22:00:30.088Z,10.88
2024-03-08T22:03:31.736Z,7.22
2024-03-08T22:06:33.384Z,10.82
2024-03-08T22:09:35.092Z,7.45
2024-03-08T22:12:36.934Z,9.98
2024-03-08T22:15:39.178Z,7.10
2024-03-08T22:18:41.693Z,9.57
2024-03-08T22:21:43.354Z,10.30
2024-03-08T22:24:46.090Z,10.63
2024-03-08T22:27:48.423Z,9.75
2024-03-08T22:30:50.135Z,10.15
2024-03-08T22:33:52.453Z,9.48
2024-03-08T22:36:54.080Z,9.15
2024-03-08T22:39:57.213Z,10.35
2024-03-08T22:46:02.280Z,9.30
2024-03-08T22:49:04.493Z,8.88
2024-03-08T22:52:06.249Z,11.85
2024-03-08T22:55:08.973Z,8.18
2024-03-08T22:58:11.006Z,9.32
2024-03-08T23:01:12.688Z,11.15
2024-03-08T23:04:15.030Z,9.25
2024-03-08T23:07:16.821Z,10.07
2024-03-08T23:10:19.842Z,10.90
2024-03-08T23:13:22.049Z,11.75
2024-03-08T23:16:24.047Z,9.50
2024-03-08T23:19:29.894Z,8.68
2024-03-08T23:22:31.661Z,12.52
2024-03-08T23:25:33.981Z,10.77
2024-03-08T23:28:36.090Z,10.00
2024-03-08T23:31:38.069Z,9.68
2024-03-08T23:34:40.366Z,8.68
2024-03-08T23:37:43.010Z,10.70
2024-03-08T23:40:45.553Z,8.30
2024-03-08T23:43:47.874Z,9.45
2024-03-08T23:46:49.616Z,9.77
2024-03-08T23:49:51.754Z,10.57
2024-03-08T23:52:54.413Z,8.73
2024-03-08T23:55:56.158Z,9.68
2024-03-08T23:58:59.091Z,12.02
